| time (UTC) | temp F | wind direction | speed MPH | gust MPH | rain 1hr in | rain 24hr in | rain mn in | humidity % | barometer mb |
| 20260502203001 | 64 | 275 | 1.0 | 0.0 | 0.00 | 0.00 | 0.00 | 34 | 1010.5 |
| 20260502201548 | 64 | 340 | 1.0 | 0.0 | 0.00 | 0.00 | 0.00 | 33 | 1011.0 |
| 20260502200041 | 63 | 275 | 2.0 | 0.0 | 0.00 | 0.00 | 0.00 | 35 | 1011.4 |
| 20260502194527 | 64 | 263 | 1.0 | 0.0 | 0.00 | 0.00 | 0.00 | 33 | 1011.7 |
| 20260502193025 | 64 | 269 | 1.0 | 0.0 | 0.00 | 0.00 | 0.00 | 33 | 1012.0 |
| 20260502191522 | 63 | 73 | 1.0 | 0.0 | 0.00 | 0.00 | 0.00 | 35 | 1012.3 |
| 20260502190020 | 63 | 74 | 2.0 | 0.0 | 0.00 | 0.00 | 0.00 | 33 | 1012.6 |
| 20260502184516 | 62 | 117 | 1.0 | 0.0 | 0.00 | 0.00 | 0.00 | 36 | 1012.9 |
| 20260502183016 | 61 | 266 | 3.0 | 0.0 | 0.00 | 0.00 | 0.00 | 35 | 1013.0 |
| 20260502181511 | 62 | 250 | 2.0 | 0.0 | 0.00 | 0.00 | 0.00 | 35 | 1013.4 |
| 20260502163003 | 58 | 85 | 0.0 | 0.0 | 0.00 | 0.00 | 0.00 | 37 | 1015.2 |
| 20260502161543 | 58 | 103 | 0.0 | 0.0 | 0.00 | 0.00 | 0.00 | 38 | 1015.3 |
| 20260502151500 | 53 | 281 | 1.0 | 0.0 | 0.00 | 0.00 | 0.00 | 43 | 1016.2 |
| 20260502123033 | 33 | 296 | 0.0 | 0.0 | 0.00 | 0.00 | 0.00 | 91 | 1017.1 |
| 20260502121539 | 31 | 296 | 0.0 | 0.0 | 0.00 | 0.00 | 0.00 | 91 | 1017.0 |
| 20260502114510 | 28 | 296 | 0.0 | 0.0 | 0.00 | 0.00 | 0.00 | 90 | 1016.9 |
| 20260502113052 | 28 | 296 | 0.0 | 0.0 | 0.00 | 0.00 | 0.00 | 90 | 1016.9 |
| 20260502111604 | 28 | 296 | 0.0 | 0.0 | 0.00 | 0.00 | 0.00 | 90 | 1016.9 |
| 20260502110036 | 28 | 296 | 0.0 | 0.0 | 0.00 | 0.00 | 0.00 | 89 | 1017.0 |
| 20260502104533 | 28 | 296 | 0.0 | 0.0 | 0.00 | 0.00 | 0.00 | 89 | 1016.8 |
| 20260502103020 | 28 | 296 | 0.0 | 0.0 | 0.00 | 0.00 | 0.00 | 89 | 1016.7 |
| 20260502101515 | 28 | 296 | 0.0 | 0.0 | 0.00 | 0.00 | 0.00 | 88 | 1016.7 |
| 20260502071514 | 31 | 296 | 0.0 | 0.0 | 0.00 | 0.00 | 0.00 | 82 | 1016.9 |
| 20260502070052 | 32 | 296 | 0.0 | 0.0 | 0.00 | 0.00 | 0.00 | 79 | 1017.0 |
| 20260502064551 | 32 | 296 | 0.0 | 0.0 | 0.00 | 0.00 | 0.00 | 77 | 1016.9 |
| 20260502063032 | 32 | 296 | 0.0 | 0.0 | 0.00 | 0.00 | 0.00 | 75 | 1017.0 |
| 20260502061530 | 33 | 296 | 0.0 | 0.0 | 0.00 | 0.00 | 0.00 | 74 | 1017.1 |
| 20260502060017 | 33 | 296 | 0.0 | 0.0 | 0.00 | 0.00 | 0.00 | 73 | 1016.9 |
| 20260502054517 | 33 | 296 | 0.0 | 0.0 | 0.00 | 0.00 | 0.00 | 73 | 1017.0 |
| 20260502053055 | 34 | 296 | 0.0 | 0.0 | 0.00 | 0.00 | 0.00 | 73 | 1017.0 |
| 20260502051549 | 34 | 296 | 0.0 | 0.0 | 0.00 | 0.00 | 0.00 | 73 | 1017.1 |
| 20260502050031 | 34 | 296 | 0.0 | 0.0 | 0.00 | 0.00 | 0.00 | 71 | 1017.2 |
| 20260502044528 | 35 | 296 | 0.0 | 0.0 | 0.00 | 0.00 | 0.00 | 70 | 1017.2 |
| 20260502043013 | 35 | 296 | 0.0 | 0.0 | 0.00 | 0.00 | 0.00 | 70 | 1017.1 |
| 20260502041512 | 36 | 296 | 0.0 | 0.0 | 0.00 | 0.00 | 0.00 | 70 | 1017.1 |
| 20260502040011 | 36 | 296 | 0.0 | 0.0 | 0.00 | 0.00 | 0.00 | 67 | 1017.0 |
| 20260502034508 | 37 | 296 | 0.0 | 0.0 | 0.00 | 0.00 | 0.00 | 66 | 1017.0 |
| 20260502033005 | 37 | 296 | 0.0 | 0.0 | 0.00 | 0.00 | 0.00 | 64 | 1017.0 |
| 20260502031504 | 38 | 296 | 0.0 | 0.0 | 0.00 | 0.00 | 0.00 | 63 | 1017.1 |
| 20260502030001 | 38 | 296 | 0.0 | 0.0 | 0.00 | 0.00 | 0.00 | 61 | 1017.0 |
| 20260502024558 | 39 | 296 | 0.0 | 0.0 | 0.00 | 0.00 | 0.00 | 58 | 1016.9 |
| 20260502023040 | 40 | 296 | 0.0 | 0.0 | 0.00 | 0.00 | 0.00 | 58 | 1016.8 |
| 20260502021534 | 41 | 296 | 0.0 | 0.0 | 0.00 | 0.00 | 0.00 | 54 | 1016.7 |
| 20260502020013 | 42 | 296 | 0.0 | 0.0 | 0.00 | 0.00 | 0.00 | 52 | 1016.7 |
| 20260502014521 | 43 | 296 | 0.0 | 0.0 | 0.00 | 0.00 | 0.00 | 49 | 1016.6 |
| 20260502013050 | 45 | 296 | 0.0 | 0.0 | 0.00 | 0.00 | 0.00 | 48 | 1016.5 |
| 20260502011545 | 47 | 296 | 0.0 | 0.0 | 0.00 | 0.00 | 0.00 | 44 | 1016.4 |
| 20260502010023 | 49 | 296 | 0.0 | 0.0 | 0.00 | 0.00 | 0.00 | 39 | 1016.3 |
| 20260502004539 | 51 | 296 | 1.0 | 0.0 | 0.00 | 0.00 | 0.00 | 36 | 1016.3 |
| 20260502003100 | 52 | 296 | 2.0 | 0.0 | 0.00 | 0.00 | 0.00 | 34 | 1016.3 |
| 20260502001558 | 53 | 308 | 0.0 | 0.0 | 0.00 | 0.00 | 0.00 | 30 | 1016.3 |
| 20260502000051 | 54 | 325 | 3.0 | 0.0 | 0.00 | 0.00 | 0.00 | 28 | 1016.2 |
| 20260501234539 | 54 | 306 | 1.0 | 0.0 | 0.00 | 0.00 | 0.00 | 29 | 1016.2 |
| 20260501233021 | 55 | 318 | 2.0 | 0.0 | 0.00 | 0.00 | 0.00 | 31 | 1016.2 |
| 20260501231534 | 54 | 285 | 1.0 | 0.0 | 0.00 | 0.00 | 0.00 | 30 | 1016.2 |
| 20260501230002 | 53 | 305 | 1.0 | 0.0 | 0.00 | 0.00 | 0.00 | 30 | 1016.2 |
| 20260501224600 | 53 | 308 | 1.0 | 0.0 | 0.00 | 0.00 | 0.00 | 32 | 1016.3 |
| 20260501223041 | 54 | 309 | 3.0 | 0.0 | 0.00 | 0.00 | 0.00 | 31 | 1016.3 |
| 20260501221540 | 54 | 321 | 4.0 | 0.0 | 0.00 | 0.00 | 0.00 | 29 | 1016.2 |
| 20260501220027 | 54 | 296 | 3.0 | 0.0 | 0.00 | 0.00 | 0.00 | 33 | 1016.4 |
| 20260501214527 | 54 | 314 | 2.0 | 0.0 | 0.00 | 0.00 | 0.00 | 32 | 1016.6 |
| 20260501213024 | 53 | 295 | 2.0 | 0.0 | 0.00 | 0.00 | 0.00 | 33 | 1016.6 |
| 20260501211526 | 52 | 74 | 0.0 | 0.0 | 0.00 | 0.00 | 0.00 | 31 | 1016.7 |
| 20260501210018 | 52 | 350 | 0.0 | 0.0 | 0.00 | 0.00 | 0.00 | 32 | 1016.9 |
| 20260501204517 | 53 | 336 | 1.0 | 0.0 | 0.00 | 0.00 | 0.00 | 32 | 1016.9 |